Managua, Nicaragua

2:09 PM CST on September 17, 2014 (GMT -0600)
Augusto Cesar Sandino | Change Station
CLOSE
Current Station
Airport
Location: Managua,
Elevation: 184 ft
Nearby Weather Stations

Elev 184 ft 12.14 °N, 86.17 °W | Updated 9 minutes ago

Partly Cloudy
Partly Cloudy
90 °F
Feels Like 100 °F
N
9
Wind Variable Wind from ESE

Today
High -- | Low -- °F
--% Chance of Precip.
Yesterday
High -- | Low -- °F
Precip. -- in
5:33 AM 5:44 PM
Waning Crescent, 33% visible
Pressure 29.80 in
Visibility 6.2 miles
Clouds Few 2400 ft
Heat Index 100 °F
Dew Point 75 °F
Humidity 62%
Rainfall 0.00 in
Snow Depth Not available.
UV 11 out of 12
Pollen Not available.
Air Quality Not available.
Flu Activity Not available.
METAR MNMG 172000Z 12008KT 9999 FEW024TCU 32/24 Q1009 A2982 TCU/N/NE/E/SW NOSIG

More Conditions Fewer Conditions

Pressure 29.80 in
Visibility 6.2 miles
Clouds Few 2400 ft
Heat Index 100 °F
Dew Point 75 °F
Humidity 62%
Rainfall 0.00 in
Snow Depth Not available.
UV 11 out of 12
Pollen Not available.
Air Quality Not available.
Flu Activity Not available.
METAR MNMG 172000Z 12008KT 9999 FEW024TCU 32/24 Q1009 A2982 TCU/N/NE/E/SW NOSIG

More Conditions Fewer Conditions

10-Day Weather Forecast

Almanac

Astronomy

Sep. 17, 2014 Rise Set
Actual Time 5:33 AM CST 5:44 PM CST
Civil Twilight 5:12 AM CST 6:05 PM CST
Nautical Twilight 4:48 AM CST 6:29 PM CST
Astronomical Twilight 4:23 AM CST 6:54 PM CST
Moon 12:16 AM CST 1:12 PM CST
Length of Visible Light 12h 52m
Length of Day
12h 10m
Tomorrow will be 0m 40s shorter.
Waning Crescent, 33% of the Moon is Illuminated
Today
Waning Crescent
Sep 24
New
Oct 1
First Quarter
Oct 8
Full
Oct 15
Last Quarter

Today's Extremes

Country Highs Country Lows

Community

WunderPhotos

Upload Photos

1,754,154 photos uploaded!

Nearby

Snow Depth

Not available.

Earthquake Activity

City Distance Mag. Time & Date
No recent earthquake activity has been reported nearby.
Minimum magnitude displayed is 2.5.

Coastal Water Temperatures

Place Temperature
No Stations Reporting

Nearby Weather Stations